Time;durP1;ratioP1;P1;durP2;ratioP2;P2;SDS_P1;SDS_P2;PMS_P1;PMS_P2;Temp;Humidity;BMP_temperature;BMP_pressure;BME280_temperature;BME280_humidity;BME280_pressure;Samples;Min_cycle;Max_cycle;Signal;HPM_P1;HPM_P2
2021/05/10 00:00:33;;;;;;;11.10;4.07;;;13.80;87.80;;;;;;5074152;28;20025;-71
2021/05/10 00:02:59;;;;;;;7.82;3.58;;;13.70;88.50;;;;;;5055941;28;20427;-71
2021/05/10 00:05:25;;;;;;;6.38;3.45;;;13.60;88.30;;;;;;5056047;28;20039;-70
2021/05/10 00:07:50;;;;;;;7.60;3.50;;;13.60;88.60;;;;;;5074150;28;20048;-70
2021/05/10 00:10:17;;;;;;;4.40;3.40;;;13.60;87.70;;;;;;5055714;28;20464;-70
2021/05/10 00:12:43;;;;;;;5.40;2.83;;;13.50;89.30;;;;;;5073835;28;20404;-70
2021/05/10 00:15:10;;;;;;;4.47;2.90;;;13.50;89.90;;;;;;5073858;28;20369;-71
2021/05/10 00:17:36;;;;;;;12.00;3.83;;;13.50;90.40;;;;;;5055756;28;20453;-71
2021/05/10 00:20:03;;;;;;;5.68;2.33;;;13.50;90.30;;;;;;5073687;28;20021;-71
2021/05/10 00:22:28;;;;;;;3.25;2.17;;;13.50;90.40;;;;;;5073335;28;20032;-71
2021/05/10 00:24:54;;;;;;;6.05;2.65;;;13.40;91.00;;;;;;5073704;28;20487;-71
2021/05/10 00:27:20;;;;;;;6.78;2.78;;;13.40;91.30;;;;;;5073853;28;20055;-71
2021/05/10 00:29:46;;;;;;;2.97;2.40;;;13.30;91.00;;;;;;5055577;28;20047;-70
2021/05/10 00:32:12;;;;;;;3.88;2.47;;;13.30;91.10;;;;;;5055563;28;20025;-71
2021/05/10 00:34:38;;;;;;;3.97;2.38;;;13.30;91.20;;;;;;5073761;28;20036;-70
2021/05/10 00:37:04;;;;;;;4.38;2.15;;;13.30;91.00;;;;;;5055409;28;20035;-71
2021/05/10 00:39:30;;;;;;;3.75;2.30;;;13.30;91.20;;;;;;5073434;28;20032;-70
2021/05/10 00:41:56;;;;;;;3.42;2.10;;;13.20;91.50;;;;;;5073283;28;20385;-70
2021/05/10 00:44:22;;;;;;;3.83;2.13;;;13.20;91.20;;;;;;5073311;28;20033;-70
2021/05/10 00:46:52;;;;;;;2.47;1.95;;;13.20;91.50;;;;;;5055424;28;20037;-71
2021/05/10 00:49:17;;;;;;;5.00;2.38;;;13.20;91.30;;;;;;5073253;28;20024;-70
2021/05/10 00:51:43;;;;;;;2.25;1.95;;;13.10;91.50;;;;;;5055153;28;20039;-70
2021/05/10 00:54:09;;;;;;;3.42;2.17;;;13.10;91.60;;;;;;5073184;28;20074;-70
2021/05/10 00:56:35;;;;;;;2.75;2.00;;;13.00;91.70;;;;;;5073235;28;20028;-70
2021/05/10 00:59:02;;;;;;;2.92;2.00;;;13.00;92.00;;;;;;5055167;28;20028;-71
2021/05/10 01:01:27;;;;;;;3.08;1.98;;;13.00;92.20;;;;;;5072813;28;20378;-70
2021/05/10 01:03:54;;;;;;;2.90;2.15;;;13.00;92.10;;;;;;5055031;28;20036;-70
2021/05/10 01:06:21;;;;;;;2.72;1.90;;;13.00;92.30;;;;;;5073125;28;20036;-70
2021/05/10 01:08:47;;;;;;;1.98;1.83;;;12.90;92.10;;;;;;5054533;28;20025;-70
2021/05/10 01:11:14;;;;;;;3.63;2.30;;;12.90;92.60;;;;;;5051250;28;20045;-70
2021/05/10 01:13:40;;;;;;;4.10;2.20;;;12.90;93.30;;;;;;5052741;28;20033;-70
2021/05/10 01:16:06;;;;;;;3.35;2.17;;;12.80;92.80;;;;;;5053022;28;20033;-70
2021/05/10 01:18:33;;;;;;;3.83;2.70;;;12.80;92.80;;;;;;5052943;28;20025;-71
2021/05/10 01:21:01;;;;;;;2.85;2.47;;;12.80;93.20;;;;;;5052862;28;20037;-70
2021/05/10 01:23:27;;;;;;;4.00;2.47;;;12.80;93.30;;;;;;5052884;28;20029;-71
2021/05/10 01:25:53;;;;;;;2.67;2.08;;;12.70;93.50;;;;;;5052939;28;20404;-72
2021/05/10 01:28:19;;;;;;;3.35;2.15;;;12.60;94.10;;;;;;5052884;28;20043;-72
2021/05/10 01:30:49;;;;;;;3.67;1.90;;;12.60;93.90;;;;;;5051461;28;20029;-71
2021/05/10 01:33:15;;;;;;;3.83;2.10;;;12.50;93.70;;;;;;5052860;28;20059;-71
2021/05/10 01:35:44;;;;;;;2.60;1.65;;;12.50;94.20;;;;;;5053068;28;20032;-71
2021/05/10 01:38:10;;;;;;;3.97;2.20;;;12.40;94.10;;;;;;5052742;28;20140;-71
2021/05/10 01:40:36;;;;;;;3.13;2.05;;;12.40;94.20;;;;;;5052752;28;20025;-72
2021/05/10 01:43:03;;;;;;;6.32;2.35;;;12.40;94.50;;;;;;5052627;28;20033;-70
2021/05/10 01:45:29;;;;;;;7.20;2.25;;;12.40;94.70;;;;;;5052784;28;20056;-70
2021/05/10 01:48:16;;;;;;;3.28;2.05;;;12.40;95.10;;;;;;5052700;28;20627;-70
2021/05/10 01:50:44;;;;;;;4.78;2.40;;;12.40;94.90;;;;;;5052719;28;20028;-70
2021/05/10 01:53:10;;;;;;;3.13;2.20;;;12.30;94.70;;;;;;5051275;28;20086;-69
2021/05/10 01:55:37;;;;;;;2.72;2.40;;;12.30;95.30;;;;;;5051289;28;20036;-70
2021/05/10 01:58:05;;;;;;;3.05;1.90;;;12.30;95.30;;;;;;5052590;28;20063;-70
2021/05/10 02:00:51;;;;;;;2.97;1.83;;;12.30;94.90;;;;;;5052541;28;20083;-72
2021/05/10 02:03:18;;;;;;;2.40;2.03;;;;;;;;;;5052310;28;20118;-70
2021/05/10 02:05:45;;;;;;;3.80;1.85;;;;;;;;;;5052224;28;20025;-70
2021/05/10 02:08:12;;;;;;;4.32;2.30;;;;;;;;;;5051147;28;20116;-70
2021/05/10 02:10:45;;;;;;;2.00;1.90;;;;;;;;;;5064709;28;20127;-70
2021/05/10 02:13:13;;;;;;;2.67;1.50;;;;;;;;;;5072475;28;20111;-69
2021/05/10 02:15:46;;;;;;;1.95;1.65;;;;;;;;;;5072458;28;20050;-69
2021/05/10 02:18:13;;;;;;;2.55;1.75;;;;;;;;;;5072522;28;20520;-71
2021/05/10 02:20:40;;;;;;;2.45;1.70;;;;;;;;;;5055124;28;20112;-69
2021/05/10 02:23:07;;;;;;;1.83;1.73;;;;;;;;;;5057910;28;20499;-71
2021/05/10 02:25:38;;;;;;;2.05;1.60;;;;;;;;;;5075978;28;20033;-70
2021/05/10 02:28:05;;;;;;;1.90;1.67;;;;;;;;;;5057854;28;20123;-70
2021/05/10 02:30:32;;;;;;;7.38;1.67;;;;;;;;;;5075746;28;20078;-70
2021/05/10 02:32:59;;;;;;;3.92;1.90;;;;;;;;;;5075802;28;20086;-70
2021/05/10 02:35:26;;;;;;;3.40;1.65;;;;;;;;;;5075772;28;20222;-71
2021/05/10 02:37:52;;;;;;;1.77;1.67;;;;;;;;;;5075715;28;20027;-71
2021/05/10 02:40:19;;;;;;;3.03;1.55;;;;;;;;;;5075654;28;20079;-70
2021/05/10 02:42:46;;;;;;;3.00;2.03;;;;;;;;;;5057584;28;20034;-71
2021/05/10 02:45:13;;;;;;;3.15;1.80;;;;;;;;;;5075575;28;20163;-71
2021/05/10 02:47:39;;;;;;;1.98;1.65;;;;;;;;;;5075564;28;20056;-73
2021/05/10 02:50:07;;;;;;;1.70;1.60;;;;;;;;;;5075206;28;20443;-73
2021/05/10 02:52:33;;;;;;;2.40;1.90;;;;;;;;;;5075449;28;20493;-70
2021/05/10 02:55:00;;;;;;;3.47;1.77;;;;;;;;;;5057374;28;20044;-70
2021/05/10 02:57:26;;;;;;;5.57;1.70;;;;;;;;;;5057429;28;20037;-70
2021/05/10 02:59:52;;;;;;;3.70;2.22;;;;;;;;;;5057365;28;20119;-69
2021/05/10 03:02:20;;;;;;;3.42;2.05;;;;;;;;;;5075239;28;20032;-73
2021/05/10 03:04:46;;;;;;;2.80;1.85;;;;;;;;;;5057200;28;20036;-71
2021/05/10 03:07:13;;;;;;;2.75;1.80;;;;;;;;;;5075249;28;20064;-73
2021/05/10 03:09:39;;;;;;;4.13;2.22;;;;;;;;;;5053538;28;20059;-72
2021/05/10 03:12:05;;;;;;;2.80;2.35;;;;;;;;;;5053845;28;20473;-74
2021/05/10 03:14:31;;;;;;;11.23;2.88;;;;;;;;;;5054987;28;20029;-72
2021/05/10 03:16:58;;;;;;;9.75;2.97;;;;;;;;;;5055052;28;20122;-72
2021/05/10 03:19:24;;;;;;;7.45;2.28;;;;;;;;;;5053626;28;20029;-70
2021/05/10 03:21:50;;;;;;;4.55;2.40;;;;;;;;;;5054801;28;20064;-73
2021/05/10 03:24:16;;;;;;;5.85;2.40;;;;;;;;;;5054828;28;20040;-74
2021/05/10 03:26:42;;;;;;;4.43;2.92;;;;;;;;;;5054816;28;20104;-71
2021/05/10 03:29:09;;;;;;;7.93;2.38;;;;;;;;;;5053436;28;20114;-71
2021/05/10 03:31:36;;;;;;;3.13;1.90;;;;;;;;;;5054623;28;20120;-73
2021/05/10 03:34:03;;;;;;;4.07;2.40;;;;;;;;;;5054648;28;20064;-70
2021/05/10 03:36:29;;;;;;;2.33;2.03;;;;;;;;;;5054651;28;20065;-71
2021/05/10 03:38:56;;;;;;;4.50;1.92;;;;;;;;;;5053291;28;20414;-72
2021/05/10 03:41:25;;;;;;;3.83;2.20;;;11.30;98.70;;;;;;5054403;28;20527;-71
2021/05/10 03:43:51;;;;;;;5.18;2.60;;;11.30;99.10;;;;;;5053135;28;20035;-70
2021/05/10 03:46:17;;;;;;;9.90;3.63;;;11.30;98.70;;;;;;5054512;28;20103;-70
2021/05/10 03:48:44;;;;;;;5.07;3.70;;;11.30;98.60;;;;;;5054370;28;20021;-70
2021/05/10 03:51:10;;;;;;;12.07;3.83;;;11.30;98.70;;;;;;5054634;28;20120;-69
2021/05/10 03:53:35;;;;;;;9.50;2.80;;;11.40;98.90;;;;;;5052927;28;20025;-69
2021/05/10 03:56:02;;;;;;;3.55;2.50;;;11.40;98.80;;;;;;5054559;28;20087;-70
2021/05/10 03:58:28;;;;;;;3.75;2.80;;;11.40;98.60;;;;;;5054157;28;20039;-70
2021/05/10 04:00:53;;;;;;;4.95;3.30;;;11.50;98.60;;;;;;5054151;28;20101;-71
2021/05/10 04:03:22;;;;;;;6.60;2.85;;;11.50;98.60;;;;;;5054081;28;20115;-70
2021/05/10 04:11:09;;;;;;;4.57;2.92;;;11.60;98.90;;;;;;5068505;28;20440;-72
2021/05/10 04:13:57;;;;;;;10.57;4.05;;;11.60;98.80;;;;;;5056026;28;20029;-69
2021/05/10 04:16:23;;;;;;;5.90;3.55;;;11.70;98.40;;;;;;5073875;28;20027;-72
2021/05/10 04:18:49;;;;;;;5.63;2.92;;;11.80;98.50;;;;;;5073743;28;20029;-72
2021/05/10 04:21:15;;;;;;;6.95;2.90;;;11.70;99.20;;;;;;5073611;28;20021;-72
2021/05/10 04:23:41;;;;;;;10.57;3.70;;;11.80;98.60;;;;;;5073654;28;20051;-71
2021/05/10 04:26:07;;;;;;;3.97;2.80;;;11.80;98.20;;;;;;5073607;28;20025;-72
2021/05/10 04:28:36;;;;;;;4.18;2.88;;;11.90;98.80;;;;;;5055603;28;20097;-71
2021/05/10 04:31:02;;;;;;;4.57;3.10;;;11.90;98.60;;;;;;5055551;28;20040;-69
2021/05/10 04:33:33;;;;;;;9.95;3.00;;;12.00;98.40;;;;;;5073763;28;20085;-69
2021/05/10 04:36:00;;;;;;;7.90;2.60;;;12.10;98.50;;;;;;5055484;28;20083;-68
2021/05/10 04:38:27;;;;;;;6.70;3.38;;;12.10;98.20;;;;;;5055474;28;20036;-70
2021/05/10 04:40:58;;;;;;;4.32;2.72;;;12.20;98.20;;;;;;5073396;28;20095;-68
2021/05/10 04:43:24;;;;;;;4.93;2.95;;;12.30;97.90;;;;;;5072700;28;20029;-69
2021/05/10 04:45:51;;;;;;;4.60;2.60;;;12.50;97.50;;;;;;5072995;28;20473;-69
2021/05/10 04:48:17;;;;;;;6.05;2.72;;;12.50;97.70;;;;;;5073359;28;20024;-69
2021/05/10 04:50:43;;;;;;;4.55;2.65;;;12.60;97.40;;;;;;5055252;28;20062;-69
2021/05/10 04:53:13;;;;;;;7.32;3.67;;;12.70;97.30;;;;;;5073217;28;20040;-69
2021/05/10 04:55:39;;;;;;;6.75;3.00;;;12.70;97.00;;;;;;5073188;28;20028;-69
2021/05/10 04:58:05;;;;;;;5.07;2.67;;;12.80;97.20;;;;;;5073007;28;20039;-69
2021/05/10 05:00:32;;;;;;;3.20;2.33;;;13.00;97.30;;;;;;5073133;28;20034;-70
2021/05/10 05:02:57;;;;;;;3.30;2.50;;;13.00;96.40;;;;;;5072991;28;20029;-69
2021/05/10 05:05:23;;;;;;;4.78;3.10;;;13.10;96.30;;;;;;5073122;28;20024;-69
2021/05/10 05:07:49;;;;;;;10.00;3.60;;;13.20;96.20;;;;;;5072856;28;20032;-70
2021/05/10 05:10:15;;;;;;;6.43;3.30;;;13.30;96.50;;;;;;5051324;28;20081;-69
2021/05/10 05:12:42;;;;;;;6.60;3.92;;;13.30;96.40;;;;;;5052547;28;20087;-69
2021/05/10 05:15:10;;;;;;;8.32;3.58;;;13.40;96.50;;;;;;5052789;28;20074;-70
2021/05/10 05:17:37;;;;;;;3.40;2.97;;;13.50;96.70;;;;;;5052876;28;20037;-70
2021/05/10 05:20:07;;;;;;;17.33;4.13;;;13.50;96.40;;;;;;5051504;28;20401;-69
2021/05/10 05:22:34;;;;;;;6.80;3.88;;;13.60;97.10;;;;;;5052643;28;20037;-69
2021/05/10 05:25:00;;;;;;;8.88;3.53;;;13.70;97.00;;;;;;5051534;28;20144;-71
2021/05/10 05:27:26;;;;;;;13.00;3.80;;;13.80;96.70;;;;;;5051483;28;20163;-69
2021/05/10 05:29:52;;;;;;;10.95;3.58;;;13.90;96.50;;;;;;5051049;28;20036;-68
2021/05/10 05:32:21;;;;;;;9.32;3.83;;;;;;;;;;5052605;28;20025;-72
2021/05/10 05:34:47;;;;;;;7.85;3.45;;;14.10;94.10;;;;;;5051282;28;20037;-68
2021/05/10 05:37:13;;;;;;;9.95;4.30;;;14.20;93.30;;;;;;5052372;28;20033;-71
2021/05/10 05:39:38;;;;;;;6.32;3.42;;;14.30;93.90;;;;;;5052749;28;20029;-71
2021/05/10 05:42:05;;;;;;;5.00;3.33;;;14.40;92.70;;;;;;5051016;28;20040;-72
2021/05/10 05:44:36;;;;;;;4.88;3.47;;;14.40;92.10;;;;;;5052166;28;20025;-72
2021/05/10 05:47:04;;;;;;;8.93;3.63;;;14.50;92.40;;;;;;5052513;28;20027;-70
2021/05/10 05:49:36;;;;;;;5.53;2.50;;;14.60;92.10;;;;;;5052383;28;20029;-69
2021/05/10 05:52:05;;;;;;;7.60;3.15;;;14.70;92.30;;;;;;5052358;28;20029;-69
2021/05/10 05:54:34;;;;;;;5.85;2.88;;;14.70;91.30;;;;;;5053031;28;20025;-68
2021/05/10 05:57:00;;;;;;;5.30;2.85;;;14.80;91.30;;;;;;5056352;28;20075;-69
2021/05/10 05:59:26;;;;;;;3.00;2.10;;;14.90;90.90;;;;;;5055920;28;20033;-70
2021/05/10 06:01:52;;;;;;;4.00;2.72;;;15.00;90.80;;;;;;5054668;28;20099;-68
2021/05/10 06:04:18;;;;;;;7.55;3.22;;;15.10;91.30;;;;;;5054841;28;20079;-70
2021/05/10 06:06:44;;;;;;;8.27;3.08;;;15.20;91.50;;;;;;5056124;28;20024;-70
2021/05/10 06:09:10;;;;;;;3.30;2.50;;;15.20;91.60;;;;;;5056255;28;20033;-72
2021/05/10 06:11:37;;;;;;;4.55;2.72;;;15.30;91.60;;;;;;5075914;28;20075;-70
2021/05/10 06:14:03;;;;;;;7.15;3.03;;;15.40;90.80;;;;;;5075564;28;20028;-71
2021/05/10 06:16:30;;;;;;;5.43;3.03;;;15.50;90.70;;;;;;5075328;28;20082;-71
2021/05/10 06:18:57;;;;;;;6.28;3.42;;;15.60;90.20;;;;;;5072480;28;20031;-72
2021/05/10 06:21:23;;;;;;;5.13;2.80;;;15.70;90.80;;;;;;5074250;28;20031;-72
2021/05/10 06:23:50;;;;;;;4.95;3.15;;;15.80;91.40;;;;;;5075331;28;20459;-71
2021/05/10 06:26:16;;;;;;;6.07;3.33;;;15.90;91.60;;;;;;5075454;28;20119;-70
2021/05/10 06:28:42;;;;;;;8.95;3.35;;;16.00;91.20;;;;;;5057771;28;20083;-71
2021/05/10 06:31:10;;;;;;;5.25;3.05;;;16.10;91.20;;;;;;5075431;28;20039;-70
2021/05/10 06:33:36;;;;;;;9.10;3.22;;;16.10;91.10;;;;;;5075800;28;20037;-71
2021/05/10 06:36:02;;;;;;;6.03;3.47;;;16.30;89.90;;;;;;5052407;28;20362;-70
2021/05/10 06:38:28;;;;;;;6.80;3.72;;;16.30;90.60;;;;;;5075199;28;20020;-70
2021/05/10 06:40:54;;;;;;;10.05;3.78;;;16.40;90.50;;;;;;5057624;28;20488;-70
2021/05/10 06:43:20;;;;;;;5.47;3.60;;;16.40;90.00;;;;;;5075512;28;20056;-70
2021/05/10 06:45:46;;;;;;;8.77;4.18;;;16.60;90.90;;;;;;5075443;28;20039;-71
2021/05/10 06:48:23;;;;;;;8.05;4.00;;;16.70;90.70;;;;;;5075553;28;20068;-72
2021/05/10 06:50:49;;;;;;;3.83;2.58;;;16.80;90.00;;;;;;5075686;28;20090;-71
2021/05/10 06:53:15;;;;;;;7.53;3.28;;;16.90;87.70;;;;;;5075478;28;20028;-70
2021/05/10 06:55:41;;;;;;;5.07;2.92;;;17.00;86.20;;;;;;5075140;28;20025;-69
2021/05/10 06:58:08;;;;;;;3.65;2.22;;;17.10;87.80;;;;;;5075559;28;20103;-69
2021/05/10 07:00:34;;;;;;;5.47;2.63;;;17.20;86.60;;;;;;5075264;28;20086;-71
2021/05/10 07:03:00;;;;;;;4.35;2.25;;;17.30;86.60;;;;;;5075213;28;20040;-70
2021/05/10 07:05:26;;;;;;;3.72;2.63;;;17.40;87.10;;;;;;5074877;28;20081;-71
2021/05/10 07:07:52;;;;;;;9.98;3.08;;;17.50;85.90;;;;;;5056815;28;20025;-71
2021/05/10 07:10:18;;;;;;;3.95;2.20;;;17.70;84.70;;;;;;5075086;28;20083;-70
2021/05/10 07:12:43;;;;;;;4.95;2.40;;;17.80;85.40;;;;;;5075144;28;20086;-71
2021/05/10 07:15:10;;;;;;;6.68;2.55;;;17.90;85.20;;;;;;5057054;28;20032;-71
2021/05/10 07:17:35;;;;;;;3.80;2.63;;;18.10;83.80;;;;;;5056556;28;20032;-70
2021/05/10 07:20:01;;;;;;;4.47;2.78;;;18.20;81.60;;;;;;5075165;28;20024;-70
2021/05/10 07:22:27;;;;;;;3.53;2.20;;;18.30;81.00;;;;;;5074956;28;20033;-70
2021/05/10 07:24:53;;;;;;;4.38;2.60;;;18.40;80.70;;;;;;5056932;28;20021;-71
2021/05/10 07:27:18;;;;;;;4.22;2.50;;;18.60;76.40;;;;;;5056668;28;20025;-70
2021/05/10 07:29:44;;;;;;;4.72;2.47;;;18.70;79.10;;;;;;5074893;28;20040;-70
2021/05/10 07:32:10;;;;;;;7.45;2.67;;;18.90;77.10;;;;;;5074584;28;20039;-70
2021/05/10 07:34:36;;;;;;;6.55;2.30;;;19.00;77.00;;;;;;5074146;28;20039;-70
2021/05/10 07:37:02;;;;;;;2.97;2.20;;;19.20;79.50;;;;;;5074378;28;20029;-70
2021/05/10 07:39:28;;;;;;;3.17;2.28;;;19.40;76.10;;;;;;5056648;28;20115;-70
2021/05/10 07:41:54;;;;;;;2.83;2.13;;;19.50;73.80;;;;;;5056376;28;20484;-71
2021/05/10 07:44:19;;;;;;;3.08;2.17;;;19.60;74.20;;;;;;5056260;28;20095;-72
2021/05/10 07:46:45;;;;;;;2.70;1.88;;;19.70;73.40;;;;;;5073927;28;20059;-70
2021/05/10 07:49:11;;;;;;;6.13;1.95;;;19.80;71.70;;;;;;5074013;28;20036;-71
2021/05/10 07:51:37;;;;;;;9.75;2.60;;;20.00;72.80;;;;;;5074244;28;20032;-71
2021/05/10 07:54:03;;;;;;;10.18;2.50;;;;;;;;;;5074163;28;20024;-71
2021/05/10 07:56:30;;;;;;;2.95;1.85;;;20.30;73.70;;;;;;5056113;28;20025;-71
2021/05/10 07:58:58;;;;;;;2.33;1.80;;;20.40;72.40;;;;;;5056191;28;20131;-71
2021/05/10 08:01:24;;;;;;;6.72;2.30;;;20.60;67.90;;;;;;5073917;28;20419;-71
2021/05/10 08:03:50;;;;;;;11.75;2.88;;;20.70;71.70;;;;;;5055890;28;20028;-71
2021/05/10 08:06:17;;;;;;;3.67;2.00;;;20.90;70.00;;;;;;5073843;28;20040;-72
2021/05/10 08:08:43;;;;;;;5.75;2.38;;;21.00;69.30;;;;;;5055863;28;20039;-72
2021/05/10 08:11:08;;;;;;;2.03;1.80;;;21.10;72.20;;;;;;5055251;28;20135;-70
2021/05/10 08:13:34;;;;;;;2.53;2.17;;;21.30;68.80;;;;;;5073658;28;20035;-71
2021/05/10 08:16:00;;;;;;;6.05;2.13;;;21.30;69.60;;;;;;5056086;28;20028;-71
2021/05/10 08:18:27;;;;;;;3.50;2.10;;;21.40;69.50;;;;;;5053315;28;20028;-71
2021/05/10 08:20:56;;;;;;;3.15;2.17;;;21.60;67.30;;;;;;5072285;28;20029;-71
2021/05/10 08:23:23;;;;;;;3.58;1.95;;;21.70;68.90;;;;;;5055299;28;20477;-71
2021/05/10 08:25:50;;;;;;;4.97;2.10;;;21.90;68.80;;;;;;5073627;28;20037;-71
2021/05/10 08:28:16;;;;;;;3.50;1.58;;;22.10;67.80;;;;;;5053661;28;20028;-71
2021/05/10 08:30:42;;;;;;;3.15;2.08;;;22.00;63.20;;;;;;5055131;28;20028;-71
2021/05/10 08:33:07;;;;;;;4.10;2.20;;;22.30;67.00;;;;;;5073273;28;20108;-71
2021/05/10 08:35:34;;;;;;;3.63;2.22;;;22.50;65.60;;;;;;5073559;28;20381;-71
2021/05/10 08:38:01;;;;;;;7.10;2.72;;;22.60;68.00;;;;;;5073318;28;20111;-71
2021/05/10 08:40:28;;;;;;;2.65;2.00;;;22.90;68.40;;;;;;5073165;28;20060;-71
2021/05/10 08:42:54;;;;;;;4.55;2.45;;;23.00;66.50;;;;;;5073190;28;20131;-71
2021/05/10 08:45:22;;;;;;;5.03;2.22;;;23.20;66.20;;;;;;5055137;28;20028;-71
2021/05/10 08:47:48;;;;;;;4.13;2.42;;;23.30;65.30;;;;;;5072859;28;20016;-71
2021/05/10 08:50:14;;;;;;;5.07;2.08;;;23.50;63.80;;;;;;5055170;28;20078;-71
2021/05/10 08:52:42;;;;;;;55.83;8.27;;;23.50;58.90;;;;;;5073163;28;20032;-71
2021/05/10 08:55:12;;;;;;;2.50;2.17;;;23.80;61.70;;;;;;5073140;28;20074;-71
2021/05/10 08:57:38;;;;;;;3.42;2.13;;;23.90;60.50;;;;;;5055484;28;20024;-73
2021/05/10 09:00:04;;;;;;;4.55;2.05;;;24.00;61.00;;;;;;5073204;28;20380;-72
2021/05/10 09:02:32;;;;;;;3.25;1.90;;;24.00;60.00;;;;;;5055020;28;20131;-72
2021/05/10 09:05:11;;;;;;;5.85;2.50;;;24.10;56.70;;;;;;5073074;28;20025;-71
2021/05/10 09:07:37;;;;;;;2.42;2.00;;;24.30;59.00;;;;;;5072918;28;20179;-72
2021/05/10 09:10:05;;;;;;;5.45;2.20;;;24.40;58.70;;;;;;5054760;28;20566;-73
2021/05/10 09:12:55;;;;;;;4.95;2.10;;;24.60;58.70;;;;;;5073010;28;20029;-73
2021/05/10 09:15:28;;;;;;;6.15;2.08;;;24.70;60.00;;;;;;5054726;28;20029;-73
2021/05/10 09:17:59;;;;;;;5.72;2.00;;;24.80;57.10;;;;;;5054909;28;20381;-72
2021/05/10 09:20:34;;;;;;;4.70;1.70;;;25.00;56.30;;;;;;5072978;28;20423;-72
2021/05/10 09:23:05;;;;;;;2.97;1.70;;;25.20;57.20;;;;;;5054795;28;20040;-73
2021/05/10 09:25:33;;;;;;;5.70;2.13;;;25.30;56.10;;;;;;5072836;28;20109;-73
2021/05/10 09:28:10;;;;;;;3.55;1.88;;;25.40;54.90;;;;;;5073077;28;20093;-73
2021/05/10 09:30:37;;;;;;;2.08;1.63;;;25.30;51.90;;;;;;5075430;28;20384;-72
2021/05/10 09:33:03;;;;;;;3.45;1.75;;;25.50;51.50;;;;;;5076901;28;20037;-72
2021/05/10 09:35:30;;;;;;;3.67;2.28;;;25.70;54.20;;;;;;5058532;28;20029;-72
2021/05/10 09:38:07;;;;;;;5.05;1.77;;;26.00;53.30;;;;;;5058292;28;20566;-73
2021/05/10 09:41:03;;;;;;;4.35;1.90;;;26.20;56.10;;;;;;5076594;28;20025;-72
2021/05/10 09:43:35;;;;;;;1.75;1.45;;;26.40;53.40;;;;;;5057015;28;20155;-73
2021/05/10 09:46:13;;;;;;;4.32;1.88;;;26.50;52.90;;;;;;5076299;28;20024;-72
2021/05/10 09:48:41;;;;;;;4.72;1.80;;;26.60;54.60;;;;;;5076374;28;20119;-72
2021/05/10 09:51:15;;;;;;;3.63;1.90;;;26.60;51.10;;;;;;5076054;28;20059;-72
2021/05/10 09:53:43;;;;;;;2.97;1.80;;;26.90;49.60;;;;;;5076520;28;20115;-72
2021/05/10 09:56:28;;;;;;;2.90;1.80;;;26.80;48.70;;;;;;5073998;28;20025;-72
2021/05/10 09:58:58;;;;;;;2.80;2.00;;;27.00;48.60;;;;;;5076330;28;20032;-71
2021/05/10 10:01:25;;;;;;;2.17;1.50;;;27.10;50.60;;;;;;5058305;28;20028;-72
2021/05/10 10:03:58;;;;;;;5.03;3.17;;;27.10;47.70;;;;;;5075938;28;20028;-71
2021/05/10 10:06:25;;;;;;;2.83;1.60;;;27.20;52.00;;;;;;5058184;28;20067;-72
2021/05/10 10:08:51;;;;;;;3.83;2.30;;;27.50;49.80;;;;;;5057594;28;20025;-71
2021/05/10 10:11:19;;;;;;;3.92;1.83;;;27.60;50.30;;;;;;5076911;28;20045;-71
2021/05/10 10:13:50;;;;;;;3.10;1.35;;;27.70;47.10;;;;;;5076042;28;20032;-71
2021/05/10 10:16:24;;;;;;;2.63;1.70;;;27.90;49.20;;;;;;5076008;28;20039;-72
2021/05/10 10:18:51;;;;;;;1.33;1.23;;;28.20;45.60;;;;;;5074635;28;20032;-74
2021/05/10 10:21:19;;;;;;;3.53;1.50;;;28.30;43.90;;;;;;5057876;28;20071;-70
2021/05/10 10:23:57;;;;;;;1.63;1.52;;;29.10;42.50;;;;;;5057905;28;20032;-72
2021/05/10 10:26:25;;;;;;;1.65;1.45;;;29.20;42.60;;;;;;5075587;28;20077;-69
2021/05/10 10:28:52;;;;;;;1.83;1.73;;;;;;;;;;5057790;28;20029;-70
2021/05/10 10:31:20;;;;;;;2.00;1.80;;;;;;;;;;5075772;28;20049;-70
2021/05/10 10:33:48;;;;;;;2.42;1.90;;;;;;;;;;5075733;28;20047;-69
2021/05/10 10:36:18;;;;;;;1.83;1.27;;;;;;;;;;5075988;28;20452;-71
2021/05/10 10:38:44;;;;;;;3.00;1.63;;;;;;;;;;5075725;28;20373;-70
2021/05/10 10:41:20;;;;;;;3.15;1.73;;;;;;;;;;5074165;28;20042;-70
2021/05/10 10:43:47;;;;;;;1.30;1.20;;;;;;;;;;5057167;28;20374;-71
2021/05/10 10:46:18;;;;;;;2.42;1.85;;;;;;;;;;5057140;28;20032;-70
2021/05/10 10:48:45;;;;;;;3.22;1.55;;;;;;;;;;5057309;28;20381;-71
2021/05/10 10:51:13;;;;;;;3.08;1.40;;;;;;;;;;5075402;28;20032;-71
2021/05/10 10:53:57;;;;;;;2.30;1.38;;;;;;;;;;5075052;28;20070;-71
2021/05/10 10:56:58;;;;;;;2.10;1.50;;;36.80;32.30;;;;;;5074802;28;20346;-71
2021/05/10 10:59:25;;;;;;;1.98;1.38;;;;;;;;;;5074565;28;20059;-71
2021/05/10 11:01:51;;;;;;;7.65;1.65;;;36.80;74.70;;;;;;5074955;28;20476;-71
2021/05/10 11:04:30;;;;;;;1.58;1.48;;;37.30;39.90;;;;;;5073902;28;20028;-71
2021/05/10 11:06:56;;;;;;;1.75;1.00;;;;;;;;;;5056699;28;20358;-71
2021/05/10 11:10:01;;;;;;;1.30;1.17;;;;;;;;;;5074380;28;20035;-70
2021/05/10 11:12:49;;;;;;;2.00;1.20;;;38.30;29.20;;;;;;4973277;28;20102;-71
2021/05/10 11:15:38;;;;;;;1.70;1.20;;;38.00;30.10;;;;;;4973896;28;20035;-71
2021/05/10 11:18:06;;;;;;;1.20;1.10;;;38.70;35.10;;;;;;4963870;28;20121;-70
2021/05/10 11:20:45;;;;;;;1.30;1.20;;;38.80;31.70;;;;;;4957608;28;20031;-71
2021/05/10 11:23:26;;;;;;;2.50;1.15;;;;;;;;;;4973602;28;20125;-71
2021/05/10 11:25:57;;;;;;;2.53;1.05;;;38.60;28.80;;;;;;4957428;28;20019;-71
2021/05/10 11:28:29;;;;;;;1.92;0.80;;;;;;;;;;4973310;28;20043;-71
2021/05/10 11:30:59;;;;;;;1.40;0.90;;;;;;;;;;4956587;28;20483;-70
2021/05/10 11:33:51;;;;;;;2.72;0.73;;;39.60;27.70;;;;;;4972674;28;20019;-71
2021/05/10 11:36:24;;;;;;;2.38;0.93;;;39.60;29.10;;;;;;4973332;28;20085;-71
2021/05/10 11:38:55;;;;;;;1.98;1.30;;;39.40;29.10;;;;;;4973181;28;20190;-71
2021/05/10 11:41:42;;;;;;;1.38;1.23;;;39.40;28.10;;;;;;4973211;28;20031;-71
2021/05/10 11:44:18;;;;;;;3.95;1.30;;;40.00;28.60;;;;;;5058783;28;20039;-69
2021/05/10 11:46:50;;;;;;;1.27;1.17;;;40.10;28.30;;;;;;5071079;28;20436;-71
2021/05/10 11:49:27;;;;;;;4.88;1.70;;;;;;;;;;5074266;28;20411;-70
2021/05/10 11:51:53;;;;;;;2.92;1.15;;;;;;;;;;5056049;28;20020;-70
2021/05/10 11:54:20;;;;;;;1.55;1.15;;;;;;;;;;5073931;28;20052;-71
2021/05/10 11:56:47;;;;;;;2.20;1.10;;;;;;;;;;5073782;28;20389;-70
2021/05/10 12:02:27;;;;;;;1.50;0.98;;;;;;;;;;5073719;28;20047;-71
2021/05/10 12:04:57;;;;;;;1.92;1.13;;;;;;;;;;5055940;28;20512;-71
2021/05/10 12:07:26;;;;;;;2.55;0.90;;;42.90;26.70;;;;;;5056070;28;20025;-71
2021/05/10 12:10:04;;;;;;;1.20;1.10;;;42.60;26.70;;;;;;5055155;28;20051;-71
2021/05/10 12:12:41;;;;;;;2.50;1.30;;;42.70;26.30;;;;;;5073803;28;20048;-71
2021/05/10 12:15:24;;;;;;;2.10;1.60;;;43.00;26.50;;;;;;5073769;28;20029;-70
2021/05/10 12:17:55;;;;;;;1.30;1.13;;;42.90;26.70;;;;;;5073448;28;20495;-70
2021/05/10 12:20:25;;;;;;;;;;;43.30;26.20;;;;;;5073721;28;20412;-69
2021/05/10 12:22:59;;;;;;;1.52;1.27;;;43.60;27.10;;;;;;5055373;28;19920;-69
2021/05/10 12:25:32;;;;;;;1.20;1.10;;;44.00;26.60;;;;;;5055499;28;20025;-70
2021/05/10 12:28:13;;;;;;;1.75;1.13;;;43.90;25.90;;;;;;5055567;28;20056;-70
2021/05/10 12:30:45;;;;;;;1.52;0.93;;;44.10;25.90;;;;;;5073018;28;20407;-71
2021/05/10 12:33:15;;;;;;;1.95;1.10;;;44.70;26.70;;;;;;5073352;28;20060;-70
2021/05/10 12:35:46;;;;;;;1.30;1.30;;;45.00;26.20;;;;;;5073430;28;20095;-70
2021/05/10 12:38:12;;;;;;;1.77;0.93;;;45.20;25.60;;;;;;5073276;28;20583;-71
2021/05/10 12:40:41;;;;;;;1.33;1.10;;;45.30;25.90;;;;;;5055694;28;20354;-71
2021/05/10 12:43:13;;;;;;;7.97;2.17;;;45.80;25.50;;;;;;5073133;28;20036;-71
2021/05/10 12:46:06;;;;;;;1.30;1.20;;;46.10;26.20;;;;;;5073192;28;20495;-70
2021/05/10 12:48:43;;;;;;;1.40;1.23;;;46.20;26.20;;;;;;5068022;28;20032;-71
2021/05/10 12:51:21;;;;;;;1.90;1.50;;;46.30;26.20;;;;;;5055310;28;20055;-71
2021/05/10 12:53:55;;;;;;;1.70;1.55;;;46.50;25.80;;;;;;5055142;28;20044;-70
2021/05/10 12:56:26;;;;;;;2.50;1.52;;;46.40;25.10;;;;;;5073254;28;20089;-70
2021/05/10 12:58:52;;;;;;;1.30;1.20;;;46.60;26.10;;;;;;5073236;28;20029;-70
2021/05/10 13:01:26;;;;;;;2.80;1.50;;;46.80;26.60;;;;;;5072985;28;20036;-71
2021/05/10 13:03:59;;;;;;;2.05;1.52;;;47.20;26.00;;;;;;5054659;28;20033;-72
2021/05/10 13:06:26;;;;;;;1.27;1.23;;;47.20;25.10;;;;;;5072901;28;20028;-71
2021/05/10 13:08:52;;;;;;;2.22;1.70;;;47.60;25.50;;;;;;5054975;28;20028;-70
2021/05/10 13:11:21;;;;;;;1.60;1.48;;;47.20;25.50;;;;;;5072953;28;20040;-70
2021/05/10 13:16:30;;;;;;;5.45;1.67;;;47.70;25.40;;;;;;5072563;28;20111;-70
2021/05/10 13:30:59;;;;;;;2.00;1.38;;;48.20;24.80;;;;;;5010539;28;20030;-70
2021/05/10 13:33:36;;;;;;;2.25;1.40;;;48.60;24.70;;;;;;5059753;28;20090;-71
2021/05/10 13:36:07;;;;;;;2.25;1.30;;;48.90;24.50;;;;;;5072491;28;20048;-70
2021/05/10 13:38:36;;;;;;;2.25;2.03;;;48.80;24.30;;;;;;5054626;28;20366;-70